createdAt,value
2019-01-31T00:00:48.848Z,70.04
2019-01-31T00:04:44.544Z,70.26
2019-01-31T00:08:02.258Z,70.21
2019-01-31T00:11:02.255Z,70.41
2019-01-31T00:14:30.646Z,70.12
2019-01-31T00:17:22.614Z,70.55
2019-01-31T00:20:22.715Z,71.03
2019-01-31T00:23:58.181Z,71.91
2019-01-31T00:27:25.181Z,71.03
2019-01-31T00:30:50.178Z,70.41
2019-01-31T00:33:31.842Z,70.02
2019-01-31T00:36:32.499Z,70.39
2019-01-31T00:40:40.759Z,71.97
2019-01-31T00:43:37.125Z,71.06
2019-01-31T00:46:56.700Z,71.45
2019-01-31T00:50:25.253Z,71.54
2019-01-31T00:53:37.742Z,70.26
2019-01-31T00:56:39.917Z,71.29
2019-01-31T00:59:47.316Z,72.33
2019-01-31T01:03:10.208Z,75.12
2019-01-31T01:06:22.487Z,72.51
2019-01-31T01:09:29.502Z,74.94
2019-01-31T01:12:49.320Z,75.19
2019-01-31T01:15:56.136Z,76.38
2019-01-31T01:19:15.923Z,74.77
2019-01-31T01:22:48.023Z,76.53
2019-01-31T01:25:58.050Z,75.90
2019-01-31T01:29:02.331Z,74.58
2019-01-31T01:32:15.003Z,74.51
2019-01-31T01:35:40.370Z,76.25
2019-01-31T01:38:54.957Z,74.62
2019-01-31T01:41:58.947Z,74.75
2019-01-31T01:45:07.555Z,74.92
2019-01-31T01:48:16.905Z,74.45
2019-01-31T01:51:34.010Z,75.10
2019-01-31T01:54:43.382Z,75.13
2019-01-31T01:58:11.538Z,76.08
2019-01-31T02:00:59.010Z,75.91
2019-01-31T02:04:10.647Z,75.98
2019-01-31T02:07:32.205Z,76.30
2019-01-31T02:10:51.421Z,77.18
2019-01-31T02:14:24.158Z,76.21
2019-01-31T02:17:24.996Z,78.14
2019-01-31T02:20:46.593Z,76.42
2019-01-31T02:23:52.393Z,78.14
2019-01-31T02:27:13.895Z,76.72
2019-01-31T02:29:56.649Z,76.96
2019-01-31T02:33:06.593Z,77.02
2019-01-31T02:36:40.392Z,76.29
2019-01-31T02:39:43.088Z,77.46
2019-01-31T02:42:45.393Z,77.76
2019-01-31T02:46:25.149Z,77.39
2019-01-31T02:50:03.369Z,76.54
2019-01-31T02:53:19.366Z,78.11
2019-01-31T02:56:35.547Z,76.90
2019-01-31T02:59:47.897Z,76.27
2019-01-31T03:02:52.154Z,77.98
2019-01-31T03:05:57.422Z,78.10
2019-01-31T03:09:15.298Z,77.28
2019-01-31T03:12:28.266Z,76.41
2019-01-31T03:15:27.946Z,77.73
2019-01-31T03:18:37.534Z,76.32
2019-01-31T03:22:42.756Z,78.15
2019-01-31T03:26:04.786Z,75.59
2019-01-31T03:29:10.691Z,75.43
2019-01-31T03:32:53.689Z,74.20
2019-01-31T03:36:08.056Z,74.33
2019-01-31T03:39:33.474Z,76.52
2019-01-31T03:42:49.390Z,75.18
2019-01-31T03:45:45.803Z,74.72
2019-01-31T03:48:31.740Z,74.43
2019-01-31T03:51:51.290Z,75.58
2019-01-31T03:55:13.456Z,76.82
2019-01-31T03:58:12.394Z,75.42
2019-01-31T04:01:39.038Z,76.58
2019-01-31T04:04:17.451Z,77.96
2019-01-31T04:06:45.451Z,76.17
2019-01-31T04:09:13.427Z,77.40
2019-01-31T04:11:41.423Z,76.42
2019-01-31T04:14:09.494Z,77.90
2019-01-31T04:16:37.794Z,76.67
2019-01-31T04:19:05.797Z,75.10
2019-01-31T04:21:33.732Z,75.59
2019-01-31T04:24:01.751Z,75.75
2019-01-31T04:26:29.904Z,76.82
2019-01-31T04:28:57.852Z,75.88
2019-01-31T04:31:26.074Z,75.02
2019-01-31T04:33:54.078Z,76.13
2019-01-31T04:36:22.064Z,75.04
2019-01-31T04:38:50.105Z,75.73
2019-01-31T04:41:18.069Z,75.53
2019-01-31T04:43:46.030Z,74.66
2019-01-31T04:46:14.249Z,73.04
2019-01-31T04:48:42.885Z,74.97
2019-01-31T04:51:11.500Z,73.76
2019-01-31T04:53:39.780Z,74.91
2019-01-31T04:56:07.730Z,75.37
2019-01-31T04:58:36.466Z,74.35
2019-01-31T05:01:04.820Z,74.26
2019-01-31T05:03:33.082Z,74.66
2019-01-31T05:06:01.324Z,75.65
2019-01-31T05:08:30.960Z,75.89
2019-01-31T05:10:59.271Z,76.49
2019-01-31T05:13:27.230Z,76.25
2019-01-31T05:15:55.517Z,75.67
2019-01-31T05:18:23.462Z,77.05
2019-01-31T05:20:51.394Z,75.87
2019-01-31T05:23:19.464Z,77.19
2019-01-31T05:25:47.467Z,75.88
2019-01-31T05:28:15.580Z,75.05
2019-01-31T05:30:44.155Z,74.82
2019-01-31T05:33:12.712Z,74.42
2019-01-31T05:35:40.796Z,73.92
2019-01-31T05:38:08.768Z,73.53
2019-01-31T05:40:37.254Z,73.77
2019-01-31T05:43:05.251Z,73.25
2019-01-31T05:45:33.191Z,72.58
2019-01-31T05:48:01.350Z,72.56
2019-01-31T05:50:29.377Z,72.28
2019-01-31T05:52:57.517Z,71.74
2019-01-31T05:55:25.604Z,71.19
2019-01-31T05:57:53.844Z,70.50
2019-01-31T06:00:29.628Z,69.87
2019-01-31T06:02:57.765Z,69.85
2019-01-31T06:05:25.737Z,69.99
2019-01-31T06:07:53.743Z,69.08
2019-01-31T06:10:21.780Z,68.82
2019-01-31T06:12:49.751Z,68.77
2019-01-31T06:15:17.739Z,68.36
2019-01-31T06:17:45.743Z,68.14
2019-01-31T06:20:19.699Z,68.49
2019-01-31T06:22:47.784Z,69.53
2019-01-31T06:25:15.786Z,68.77
2019-01-31T06:27:44.881Z,68.95
2019-01-31T06:30:14.663Z,68.57
2019-01-31T06:32:42.640Z,68.21
2019-01-31T06:35:35.557Z,68.43
2019-01-31T06:38:04.274Z,68.55
2019-01-31T06:40:42.804Z,67.80
2019-01-31T06:43:12.139Z,66.96
2019-01-31T06:45:40.205Z,66.64
2019-01-31T06:48:08.312Z,67.00
2019-01-31T06:50:36.564Z,66.28
2019-01-31T06:53:04.525Z,66.07
2019-01-31T06:55:32.576Z,66.04
2019-01-31T06:58:00.544Z,66.43
2019-01-31T07:00:28.866Z,66.53
2019-01-31T07:02:56.886Z,66.63
2019-01-31T07:05:25.040Z,67.11
2019-01-31T07:07:53.082Z,65.34
2019-01-31T07:10:25.654Z,64.69
2019-01-31T07:12:53.599Z,64.66
2019-01-31T07:15:21.944Z,65.60
2019-01-31T07:17:49.881Z,65.12
2019-01-31T07:20:17.995Z,65.76
2019-01-31T07:22:45.980Z,66.40
2019-01-31T07:25:17.635Z,67.71
2019-01-31T07:27:45.603Z,69.56
2019-01-31T07:30:14.172Z,72.16
2019-01-31T07:32:42.190Z,73.53
2019-01-31T07:35:12.014Z,77.24
2019-01-31T07:37:40.112Z,75.45
2019-01-31T07:40:09.374Z,74.80
2019-01-31T07:42:37.348Z,76.06
2019-01-31T07:45:12.376Z,74.74
2019-01-31T07:47:40.364Z,74.63
2019-01-31T07:50:10.089Z,74.00
2019-01-31T07:52:38.246Z,74.72
2019-01-31T07:55:09.158Z,74.34
2019-01-31T07:57:37.146Z,76.02
2019-01-31T08:00:08.130Z,74.68
2019-01-31T08:02:36.068Z,74.76
2019-01-31T08:05:05.529Z,74.48
2019-01-31T08:07:33.831Z,74.48
2019-01-31T08:10:01.941Z,75.66
2019-01-31T08:12:30.134Z,76.70
2019-01-31T08:14:58.089Z,76.81
2019-01-31T08:17:26.300Z,74.39
2019-01-31T08:19:54.512Z,74.55
2019-01-31T08:22:22.482Z,75.76
2019-01-31T08:24:50.446Z,75.14
2019-01-31T08:27:18.423Z,76.92
2019-01-31T08:29:46.423Z,78.56
2019-01-31T08:32:14.445Z,79.91
2019-01-31T08:34:42.529Z,80.14
2019-01-31T08:37:10.506Z,80.55
2019-01-31T08:39:38.475Z,80.88
2019-01-31T08:42:06.596Z,81.08
2019-01-31T08:44:34.644Z,82.28
2019-01-31T08:47:02.600Z,82.85
2019-01-31T08:49:30.617Z,81.36
2019-01-31T08:51:58.891Z,80.48
2019-01-31T08:54:26.989Z,80.19
2019-01-31T08:56:55.120Z,81.03
2019-01-31T08:59:23.083Z,82.48
2019-01-31T09:01:51.109Z,82.57
2019-01-31T09:04:19.110Z,82.53
2019-01-31T09:06:47.177Z,81.52
2019-01-31T09:09:15.470Z,82.00
2019-01-31T09:11:43.709Z,80.62
2019-01-31T09:14:12.780Z,80.18
2019-01-31T09:16:40.923Z,77.89
2019-01-31T09:19:08.984Z,77.40
2019-01-31T09:22:07.181Z,77.33
2019-01-31T09:25:09.916Z,76.06
2019-01-31T09:28:34.194Z,75.57
2019-01-31T09:32:10.004Z,76.52
2019-01-31T09:35:19.496Z,75.25
2019-01-31T09:38:58.731Z,75.70
2019-01-31T09:41:54.664Z,74.35
2019-01-31T09:45:08.353Z,75.13
2019-01-31T09:48:12.006Z,75.83
2019-01-31T09:51:41.403Z,73.45
2019-01-31T09:55:15.853Z,72.07
2019-01-31T09:59:05.556Z,70.10
2019-01-31T10:03:01.670Z,71.34
2019-01-31T10:06:16.482Z,69.18
2019-01-31T10:09:32.536Z,70.33
2019-01-31T10:12:38.395Z,67.53
2019-01-31T10:15:52.077Z,65.58
2019-01-31T10:19:03.008Z,64.79
2019-01-31T10:22:12.144Z,67.01
2019-01-31T10:26:02.624Z,64.63
2019-01-31T10:29:34.930Z,64.10
2019-01-31T10:32:56.787Z,66.15
2019-01-31T10:35:58.228Z,66.87
2019-01-31T10:39:03.842Z,67.77
2019-01-31T10:42:16.530Z,67.76
2019-01-31T10:45:39.151Z,67.93
2019-01-31T10:49:04.847Z,67.70
2019-01-31T10:52:12.645Z,67.62
2019-01-31T10:55:10.892Z,65.95
2019-01-31T10:59:01.539Z,64.01
2019-01-31T11:02:28.216Z,62.01
2019-01-31T11:05:38.236Z,62.02
2019-01-31T11:09:07.275Z,61.73
2019-01-31T11:12:32.590Z,62.45
2019-01-31T11:16:08.367Z,62.98
2019-01-31T11:19:31.323Z,63.27
2019-01-31T11:22:40.214Z,63.54
2019-01-31T11:26:14.034Z,63.81
2019-01-31T11:29:58.368Z,62.62
2019-01-31T11:33:05.133Z,61.24
2019-01-31T11:36:31.823Z,61.19
2019-01-31T11:40:00.127Z,60.17
2019-01-31T11:43:35.188Z,61.31
2019-01-31T11:46:52.973Z,60.65
2019-01-31T11:50:30.417Z,59.09
2019-01-31T11:53:36.898Z,59.79
2019-01-31T11:56:45.867Z,56.47
2019-01-31T11:59:16.398Z,55.93
2019-01-31T12:01:44.475Z,55.55
2019-01-31T12:04:15.728Z,55.94
2019-01-31T12:06:44.263Z,56.31
2019-01-31T12:09:18.167Z,54.38
2019-01-31T12:11:46.155Z,53.95
2019-01-31T12:14:14.156Z,53.88
2019-01-31T12:16:42.349Z,54.34
2019-01-31T12:19:10.874Z,54.03
2019-01-31T12:21:38.940Z,51.96
2019-01-31T12:24:16.141Z,51.09
2019-01-31T12:26:37.022Z,54.20
2019-01-31T12:29:05.065Z,54.66
2019-01-31T12:31:33.182Z,53.84
2019-01-31T12:34:01.911Z,52.60
2019-01-31T12:36:30.076Z,52.27
2019-01-31T12:38:58.147Z,51.09
2019-01-31T12:41:26.114Z,49.37
2019-01-31T12:43:54.679Z,49.54
2019-01-31T12:46:23.164Z,48.78
2019-01-31T12:48:51.200Z,51.15
2019-01-31T12:51:19.479Z,50.73
2019-01-31T12:53:48.463Z,50.49
2019-01-31T12:56:16.521Z,49.86
2019-01-31T12:58:46.849Z,50.93
2019-01-31T13:01:14.868Z,52.47
2019-01-31T13:03:43.622Z,50.78
2019-01-31T13:06:11.636Z,49.88
2019-01-31T13:08:39.898Z,48.83
2019-01-31T13:11:09.890Z,49.10
2019-01-31T13:13:45.886Z,50.60
2019-01-31T13:16:09.543Z,49.10
2019-01-31T13:18:37.745Z,49.18
2019-01-31T13:21:06.991Z,48.95
2019-01-31T13:23:35.051Z,48.70
2019-01-31T13:26:03.916Z,47.29
2019-01-31T13:28:32.512Z,43.80
2019-01-31T13:31:00.723Z,40.58
2019-01-31T13:33:31.844Z,39.78
2019-01-31T13:35:59.864Z,36.04
2019-01-31T13:38:28.753Z,34.02
2019-01-31T13:40:58.795Z,31.20
2019-01-31T13:43:26.820Z,32.16
2019-01-31T13:45:55.610Z,31.17
2019-01-31T13:48:23.818Z,27.79
2019-01-31T13:50:51.793Z,27.29
2019-01-31T13:53:19.905Z,28.91
2019-01-31T13:55:47.872Z,28.62
2019-01-31T13:58:16.172Z,28.08
2019-01-31T14:00:44.383Z,27.82
2019-01-31T14:03:13.136Z,29.56
2019-01-31T14:05:41.216Z,32.32
2019-01-31T14:08:09.403Z,30.97
2019-01-31T14:10:39.145Z,28.14
2019-01-31T14:13:07.113Z,28.45
2019-01-31T14:15:35.497Z,30.25
2019-01-31T14:18:03.515Z,27.79
2019-01-31T14:20:31.546Z,27.07
2019-01-31T14:22:59.815Z,28.22
2019-01-31T14:25:27.983Z,30.71
2019-01-31T14:27:55.952Z,32.51
2019-01-31T14:30:29.865Z,35.38
2019-01-31T14:32:58.263Z,34.58
2019-01-31T14:35:26.522Z,30.74
2019-01-31T14:37:55.673Z,32.22
2019-01-31T14:40:23.670Z,32.32
2019-01-31T14:42:51.902Z,34.91
2019-01-31T14:45:19.976Z,37.39
2019-01-31T14:47:48.040Z,38.33
2019-01-31T14:50:23.031Z,41.08
2019-01-31T14:52:51.644Z,42.04
2019-01-31T14:55:19.709Z,41.62
2019-01-31T14:57:47.710Z,37.21
2019-01-31T15:00:19.304Z,32.59
2019-01-31T15:02:47.618Z,30.14
2019-01-31T15:05:16.663Z,34.00
2019-01-31T15:07:44.760Z,34.62
2019-01-31T15:10:19.766Z,32.13
2019-01-31T15:12:47.869Z,30.33
2019-01-31T15:15:16.997Z,27.71
2019-01-31T15:17:46.283Z,30.95
2019-01-31T15:20:34.410Z,31.65
2019-01-31T15:22:53.494Z,33.94
2019-01-31T15:25:21.595Z,37.85
2019-01-31T15:27:49.613Z,42.16
2019-01-31T15:30:24.330Z,43.93
2019-01-31T15:32:52.375Z,45.42
2019-01-31T15:35:20.349Z,46.24
2019-01-31T15:37:48.337Z,46.60
2019-01-31T15:40:19.854Z,48.55
2019-01-31T15:42:49.023Z,49.76
2019-01-31T15:45:17.395Z,51.86
2019-01-31T15:47:50.760Z,51.63
2019-01-31T15:50:21.733Z,52.10
2019-01-31T15:52:53.940Z,53.72
2019-01-31T15:55:22.917Z,54.98
2019-01-31T15:57:51.515Z,54.38
2019-01-31T16:00:36.830Z,55.02
2019-01-31T16:03:07.700Z,55.58
2019-01-31T16:05:38.870Z,56.27
2019-01-31T16:08:08.589Z,56.75
2019-01-31T16:10:38.806Z,57.02
2019-01-31T16:15:44.589Z,57.85
2019-01-31T16:18:14.208Z,58.33
2019-01-31T16:20:42.325Z,59.49
2019-01-31T16:23:12.955Z,59.30
2019-01-31T16:25:41.173Z,59.53
2019-01-31T16:28:11.079Z,59.96
2019-01-31T16:30:48.350Z,60.55
2019-01-31T16:33:32.602Z,59.92
2019-01-31T16:36:06.135Z,60.13
2019-01-31T16:38:35.311Z,60.97
2019-01-31T16:41:03.671Z,62.03
2019-01-31T16:44:02.404Z,61.98
2019-01-31T16:46:36.468Z,62.49
2019-01-31T16:49:29.479Z,62.99
2019-01-31T16:52:16.271Z,61.48
2019-01-31T16:55:00.506Z,64.07
2019-01-31T16:57:41.419Z,63.49
2019-01-31T17:00:27.432Z,63.62
2019-01-31T17:03:05.800Z,62.09
2019-01-31T17:05:35.895Z,63.10
2019-01-31T17:08:05.490Z,63.65
2019-01-31T17:10:41.939Z,63.94
2019-01-31T17:13:10.124Z,63.29
2019-01-31T17:15:38.308Z,63.37
2019-01-31T17:18:07.269Z,63.81
2019-01-31T17:20:43.819Z,65.23
2019-01-31T17:23:12.015Z,65.49
2019-01-31T17:25:40.338Z,63.72
2019-01-31T17:28:08.737Z,64.35
2019-01-31T17:30:39.816Z,65.21
2019-01-31T17:33:08.488Z,64.61
2019-01-31T17:35:36.509Z,64.47
2019-01-31T17:38:04.644Z,64.53
2019-01-31T17:40:38.086Z,64.57
2019-01-31T17:43:08.006Z,64.43
2019-01-31T17:45:36.237Z,64.59
2019-01-31T17:48:04.793Z,64.86
2019-01-31T17:50:32.870Z,65.61
2019-01-31T17:53:00.870Z,65.10
2019-01-31T17:55:28.898Z,65.26
2019-01-31T17:57:57.152Z,65.03
2019-01-31T18:00:34.065Z,65.06
2019-01-31T18:03:02.356Z,65.30
2019-01-31T18:05:30.493Z,67.07
2019-01-31T18:07:59.540Z,65.56
2019-01-31T18:10:27.604Z,66.21
2019-01-31T18:12:55.684Z,66.42
2019-01-31T18:15:23.669Z,65.42
2019-01-31T18:17:51.776Z,66.19
2019-01-31T18:20:19.809Z,65.35
2019-01-31T18:22:48.136Z,65.50
2019-01-31T18:25:16.434Z,65.43
2019-01-31T18:27:44.500Z,64.60
2019-01-31T18:30:21.355Z,65.92
2019-01-31T18:32:49.673Z,64.79
2019-01-31T18:35:17.858Z,65.15
2019-01-31T18:37:45.941Z,65.88
2019-01-31T18:40:17.747Z,66.66
2019-01-31T18:42:45.857Z,65.79
2019-01-31T18:45:18.159Z,65.55
2019-01-31T18:47:46.686Z,66.78
2019-01-31T18:50:18.291Z,67.64
2019-01-31T18:52:46.362Z,66.32
2019-01-31T18:55:14.521Z,64.89
2019-01-31T18:57:43.656Z,64.65
2019-01-31T19:00:23.304Z,64.55
2019-01-31T19:02:52.370Z,64.82
2019-01-31T19:05:20.615Z,65.16
2019-01-31T19:07:51.001Z,64.71
2019-01-31T19:10:19.080Z,63.92
2019-01-31T19:12:47.125Z,64.15
2019-01-31T19:15:16.376Z,64.50
2019-01-31T19:17:45.165Z,65.35
2019-01-31T19:20:24.548Z,63.57
2019-01-31T19:22:53.259Z,63.84
2019-01-31T19:25:21.206Z,63.61
2019-01-31T19:27:49.204Z,63.60
2019-01-31T19:30:41.166Z,63.88
2019-01-31T19:33:18.653Z,63.55
2019-01-31T19:35:48.740Z,63.62
2019-01-31T19:38:17.938Z,63.61
2019-01-31T19:40:48.970Z,63.78
2019-01-31T19:43:20.973Z,64.11
2019-01-31T19:45:55.308Z,64.33
2019-01-31T19:48:27.932Z,64.21
2019-01-31T19:51:00.916Z,64.60
2019-01-31T19:53:33.624Z,64.04
2019-01-31T19:56:02.473Z,64.13
2019-01-31T19:58:34.550Z,64.57
2019-01-31T20:01:06.270Z,64.20
2019-01-31T20:03:40.254Z,64.93
2019-01-31T20:06:11.103Z,65.05
2019-01-31T20:08:40.090Z,64.55
2019-01-31T20:11:09.250Z,64.99
2019-01-31T20:13:38.833Z,64.98
2019-01-31T20:16:39.648Z,64.10
2019-01-31T20:19:12.280Z,63.83
2019-01-31T20:21:52.038Z,64.69
2019-01-31T20:24:24.451Z,65.69
2019-01-31T20:26:53.799Z,65.59
2019-01-31T20:29:22.523Z,64.53
2019-01-31T20:31:52.433Z,64.32
2019-01-31T20:34:22.287Z,64.46
2019-01-31T20:36:55.524Z,64.92
2019-01-31T20:39:24.450Z,65.51
2019-01-31T20:41:54.688Z,66.40
2019-01-31T20:44:24.541Z,64.92
2019-01-31T20:46:53.102Z,65.05
2019-01-31T20:49:22.493Z,66.16
2019-01-31T20:51:52.861Z,64.24
2019-01-31T20:54:24.726Z,64.65
2019-01-31T20:56:53.405Z,64.29
2019-01-31T20:59:23.922Z,64.15
2019-01-31T21:01:52.423Z,64.50
2019-01-31T21:04:21.444Z,65.64
2019-01-31T21:06:53.366Z,65.67
2019-01-31T21:09:22.106Z,64.66
2019-01-31T21:11:51.352Z,65.23
2019-01-31T21:14:19.426Z,66.62
2019-01-31T21:16:51.911Z,64.55
2019-01-31T21:19:17.561Z,63.74
2019-01-31T21:21:45.610Z,63.95
2019-01-31T21:24:13.827Z,64.07
2019-01-31T21:26:41.869Z,64.41
2019-01-31T21:29:12.445Z,64.00
2019-01-31T21:31:40.778Z,64.14
2019-01-31T21:34:08.879Z,63.56
2019-01-31T21:36:37.238Z,64.29
2019-01-31T21:39:08.122Z,63.43
2019-01-31T21:41:36.988Z,63.80
2019-01-31T21:44:05.126Z,63.47
2019-01-31T21:46:33.069Z,63.14
2019-01-31T21:49:01.320Z,63.54
2019-01-31T21:51:29.527Z,63.36
2019-01-31T21:53:57.720Z,63.77
2019-01-31T21:56:26.067Z,63.31
2019-01-31T21:58:54.447Z,64.23
2019-01-31T22:01:22.520Z,64.17
2019-01-31T22:03:50.547Z,64.97
2019-01-31T22:06:22.699Z,64.05
2019-01-31T22:08:49.216Z,63.32
2019-01-31T22:11:17.285Z,63.08
2019-01-31T22:13:45.878Z,62.52
2019-01-31T22:16:13.909Z,61.83
2019-01-31T22:18:42.920Z,61.83
2019-01-31T22:21:10.940Z,61.64
2019-01-31T22:23:38.927Z,61.96
2019-01-31T22:26:07.204Z,61.31
2019-01-31T22:28:35.189Z,61.05
2019-01-31T22:31:03.321Z,60.94
2019-01-31T22:33:31.559Z,61.04
2019-01-31T22:35:59.530Z,61.79
2019-01-31T22:38:28.571Z,61.13
2019-01-31T22:40:57.631Z,61.13
2019-01-31T22:43:25.730Z,60.29
2019-01-31T22:45:53.712Z,60.52
2019-01-31T22:48:21.772Z,60.75
2019-01-31T22:50:49.828Z,60.49
2019-01-31T22:53:17.941Z,59.77
2019-01-31T22:55:45.997Z,59.06
2019-01-31T22:58:14.139Z,59.31
2019-01-31T23:01:32.163Z,59.56
2019-01-31T23:04:00.613Z,59.41
2019-01-31T23:06:28.667Z,58.66
2019-01-31T23:08:56.948Z,58.74
2019-01-31T23:11:24.908Z,58.44
2019-01-31T23:13:52.920Z,57.86
2019-01-31T23:16:20.917Z,58.42
2019-01-31T23:18:48.988Z,59.71
2019-01-31T23:21:17.190Z,58.53
2019-01-31T23:23:45.442Z,57.31
2019-01-31T23:26:13.460Z,57.97
2019-01-31T23:28:41.543Z,57.45
2019-01-31T23:31:09.532Z,58.24
2019-01-31T23:33:40.785Z,57.98
2019-01-31T23:36:08.196Z,57.49
2019-01-31T23:38:36.233Z,56.94
2019-01-31T23:41:04.203Z,56.03
2019-01-31T23:43:32.193Z,56.22
2019-01-31T23:46:00.281Z,56.69
2019-01-31T23:48:28.336Z,56.51
2019-01-31T23:50:56.358Z,56.34
2019-01-31T23:53:24.405Z,56.08
2019-01-31T23:55:52.651Z,56.22
2019-01-31T23:58:20.807Z,56.38
